Mount Isa Airport
YBMA : now visible

Airfield :











YOU CAN JOIN US ON...

 
LOGIN :

Register | Disclaimer

   EN    FR    IT 

 









Legend :    VFR   Marginal VFR   IFR   Intensive IFR   Very Intensive IFR
Visi :
Ceiling :
>= 8 km
>= 3000ft
5 to 8 km
1000 to 3000 ft
1500m to 5 km
500 to 1000 ft
800 to 1500m
200 to 500 ft
< 800m
< 200 ft
Symbols :   Thunderstorms  Fog  Heavy snow  Heavy precipitations  Wind > 20 kt






- Airport Elevation : 1121 ft
- IATA code : ISA


YBMA - Mount Isa

CURRENT METAR :
  • 181230Z AUTO 15005KT 9999 // SCT115 30/08 Q1010 RF00.0/000.0

EXPIRED METARs :
  • 181200Z AUTO 17007KT 9999 // SCT115 33/06 Q1010
  • 181130Z AUTO 18005KT 9999 // SCT115 33/09 Q1009 RF00.0/000.0
  • 181100Z AUTO 16001KT 9999 // NCD 32/10 Q1009
  • 181030Z AUTO 00000KT 9999 // SCT120 32/11 Q1008 RF00.0/000.0
  • 181000Z AUTO 09003KT 9999 // SCT120 33/11 Q1008

TAF AMD TAF YBMA
Valid from the 18 at 10:00 until the 19 at 00:00 UTC


180947Z 1810/1900 14007KT CAVOK
YBBB FIR / Oceania



MET'MAP, your aeronautical weather chart ! - Copyright ORBIFLY December 2007 - Disclaimer

ORBIFLY MET'MAP TEAM :

Programming & Development : Alexandra Zaïnal
Concept & original design : Baudouin d'Aumeries
Assistance for programming : Marc-Olivier Méhu
Technical & hardware support : Manuel Goepfert

Contact : metmap@orbifly.com




SOURCES & CREDITS :

   NOAA       Earth
Advisory